This is the latest recevied weather packets stored in our database for station/object PP5FMM-10. If no packets are shown the sender has not sent any weather packets the latest 10 day(s).
| Time | Temp. | Humidity | Pressure | Rain* | Wind** | Luminosity | Snow |
|---|---|---|---|---|---|---|---|
| 1787868318 | 21.67° C | 87% | 1011.9 hPa | - | - | - | - |
| 1787867418 | 21.67° C | 87% | 1011.8 hPa | - | - | - | - |
| 1787866518 | 21.67° C | 87% | 1011.7 hPa | - | - | - | - |
| 1787865618 | 22.22° C | 87% | 1011.5 hPa | - | - | - | - |
| 1787864718 | 22.22° C | 86% | 1011.4 hPa | - | - | - | - |
| 1787862917 | 22.22° C | 85% | 1011 hPa | - | - | - | - |
| 1787862017 | 22.78° C | 85% | 1011 hPa | - | - | - | - |
| 1787861116 | 22.78° C | 85% | 1010.9 hPa | - | - | - | - |
| 1787860216 | 22.78° C | 84% | 1010.7 hPa | - | - | - | - |
| 1787859316 | 22.22° C | 86% | 1010.6 hPa | - | - | - | - |
| 1787858415 | 22.22° C | 87% | 1010.7 hPa | - | - | - | - |
| 1787855715 | 21.11° C | 91% | 1010.7 hPa | - | - | - | - |
| 1787854815 | 21.11° C | 91% | 1011 hPa | - | - | - | - |
| 1787853915 | 21.11° C | 92% | 1011 hPa | - | - | - | - |
| 1787852114 | 21.11° C | 90% | 1011.2 hPa | - | - | - | - |
| 1787851214 | 21.11° C | 89% | 1011.3 hPa | - | - | - | - |
| 1787850314 | 21.67° C | 87% | 1011.6 hPa | - | - | - | - |
| 1787848513 | 20.56° C | 89% | 1012.3 hPa | - | - | - | - |
| 1787847613 | 21.11° C | 88% | 1012.8 hPa | - | - | - | - |
| 1787846713 | 20.56° C | 89% | 1013.1 hPa | - | - | - | - |
| 1787844913 | 21.11° C | 87% | 1013.8 hPa | - | - | - | - |
| 1787844012 | 21.11° C | 87% | 1014 hPa | - | - | - | - |
| 1787841312 | 21.67° C | 83% | 1014.9 hPa | - | - | - | - |
| 1787840412 | 21.67° C | 83% | 1015.1 hPa | - | - | - | - |
| 1787839512 | 21.67° C | 83% | 1015.3 hPa | - | - | - | - |
* Rain since midnight (hover to see other rain measurements)
** Current wind speed in m/s (hover to see current wind gust speed)